sensor_id;sensor_type;location;lat;lon;timestamp;temperature;humidity
13944;DHT22;7044;53.286;8.534;2023-04-06T00:00:37;2.70;41.60
13944;DHT22;7044;53.286;8.534;2023-04-06T00:03:04;2.80;45.00
13944;DHT22;7044;53.286;8.534;2023-04-06T00:05:31;2.80;37.00
13944;DHT22;7044;53.286;8.534;2023-04-06T00:07:59;2.60;38.40
13944;DHT22;7044;53.286;8.534;2023-04-06T00:10:26;2.60;39.70
13944;DHT22;7044;53.286;8.534;2023-04-06T00:12:53;2.70;45.00
13944;DHT22;7044;53.286;8.534;2023-04-06T00:15:20;2.70;46.10
13944;DHT22;7044;53.286;8.534;2023-04-06T00:17:47;2.70;45.10
13944;DHT22;7044;53.286;8.534;2023-04-06T00:20:14;2.60;43.10
13944;DHT22;7044;53.286;8.534;2023-04-06T00:22:40;2.70;49.00
13944;DHT22;7044;53.286;8.534;2023-04-06T00:25:09;2.70;47.10
13944;DHT22;7044;53.286;8.534;2023-04-06T00:27:36;2.80;49.70
13944;DHT22;7044;53.286;8.534;2023-04-06T00:30:04;2.70;47.00
13944;DHT22;7044;53.286;8.534;2023-04-06T00:32:31;2.70;50.40
13944;DHT22;7044;53.286;8.534;2023-04-06T00:34:58;2.60;49.30
13944;DHT22;7044;53.286;8.534;2023-04-06T00:37:25;2.60;51.50
13944;DHT22;7044;53.286;8.534;2023-04-06T00:39:52;2.60;55.40
13944;DHT22;7044;53.286;8.534;2023-04-06T00:42:21;2.70;58.30
13944;DHT22;7044;53.286;8.534;2023-04-06T00:44:51;2.80;64.40
13944;DHT22;7044;53.286;8.534;2023-04-06T00:47:18;2.70;60.80
13944;DHT22;7044;53.286;8.534;2023-04-06T00:49:45;2.60;55.10
13944;DHT22;7044;53.286;8.534;2023-04-06T00:52:12;2.60;56.60
13944;DHT22;7044;53.286;8.534;2023-04-06T00:54:39;2.60;61.40
13944;DHT22;7044;53.286;8.534;2023-04-06T00:57:06;2.60;59.50
13944;DHT22;7044;53.286;8.534;2023-04-06T00:59:34;2.60;59.90
13944;DHT22;7044;53.286;8.534;2023-04-06T01:02:01;2.60;65.10
13944;DHT22;7044;53.286;8.534;2023-04-06T01:04:28;2.70;69.30
13944;DHT22;7044;53.286;8.534;2023-04-06T01:06:55;2.70;71.10
13944;DHT22;7044;53.286;8.534;2023-04-06T01:09:22;2.70;69.90
13944;DHT22;7044;53.286;8.534;2023-04-06T01:11:49;2.60;63.80
13944;DHT22;7044;53.286;8.534;2023-04-06T01:14:16;2.50;63.50
13944;DHT22;7044;53.286;8.534;2023-04-06T01:16:44;2.50;62.70
13944;DHT22;7044;53.286;8.534;2023-04-06T01:19:12;2.40;64.60
13944;DHT22;7044;53.286;8.534;2023-04-06T01:21:39;2.30;63.90
13944;DHT22;7044;53.286;8.534;2023-04-06T01:24:08;2.30;67.50
13944;DHT22;7044;53.286;8.534;2023-04-06T01:26:36;2.50;73.00
13944;DHT22;7044;53.286;8.534;2023-04-06T01:29:03;2.50;75.10
13944;DHT22;7044;53.286;8.534;2023-04-06T01:31:30;2.40;71.60
13944;DHT22;7044;53.286;8.534;2023-04-06T01:33:57;2.40;73.60
13944;DHT22;7044;53.286;8.534;2023-04-06T01:36:24;2.40;76.10
13944;DHT22;7044;53.286;8.534;2023-04-06T01:38:51;2.40;74.80
13944;DHT22;7044;53.286;8.534;2023-04-06T01:41:19;2.30;73.50
13944;DHT22;7044;53.286;8.534;2023-04-06T01:43:47;2.30;74.80
13944;DHT22;7044;53.286;8.534;2023-04-06T01:46:14;2.30;75.50
13944;DHT22;7044;53.286;8.534;2023-04-06T01:48:41;2.30;75.90
13944;DHT22;7044;53.286;8.534;2023-04-06T01:51:08;2.20;75.50
13944;DHT22;7044;53.286;8.534;2023-04-06T01:53:35;2.20;72.60
13944;DHT22;7044;53.286;8.534;2023-04-06T01:56:02;2.20;73.80
13944;DHT22;7044;53.286;8.534;2023-04-06T01:58:30;2.20;74.70
13944;DHT22;7044;53.286;8.534;2023-04-06T02:00:57;2.30;75.50
13944;DHT22;7044;53.286;8.534;2023-04-06T02:03:24;2.20;74.20
13944;DHT22;7044;53.286;8.534;2023-04-06T02:05:51;2.30;70.80
13944;DHT22;7044;53.286;8.534;2023-04-06T02:08:17;2.10;65.20
13944;DHT22;7044;53.286;8.534;2023-04-06T02:10:44;2.20;65.90
13944;DHT22;7044;53.286;8.534;2023-04-06T02:13:11;2.10;65.10
13944;DHT22;7044;53.286;8.534;2023-04-06T02:15:39;2.10;63.60
13944;DHT22;7044;53.286;8.534;2023-04-06T02:18:06;2.10;62.70
13944;DHT22;7044;53.286;8.534;2023-04-06T02:20:33;2.20;65.00
13944;DHT22;7044;53.286;8.534;2023-04-06T02:23:00;2.30;62.80
13944;DHT22;7044;53.286;8.534;2023-04-06T02:25:27;2.30;62.80
13944;DHT22;7044;53.286;8.534;2023-04-06T02:27:54;2.30;64.20
13944;DHT22;7044;53.286;8.534;2023-04-06T02:30:21;2.30;63.60
13944;DHT22;7044;53.286;8.534;2023-04-06T02:32:49;2.20;63.30
13944;DHT22;7044;53.286;8.534;2023-04-06T02:35:16;2.10;64.60
13944;DHT22;7044;53.286;8.534;2023-04-06T02:37:43;2.10;68.30
13944;DHT22;7044;53.286;8.534;2023-04-06T02:40:10;2.20;66.50
13944;DHT22;7044;53.286;8.534;2023-04-06T02:42:37;2.20;65.60
13944;DHT22;7044;53.286;8.534;2023-04-06T02:45:05;2.20;66.40
13944;DHT22;7044;53.286;8.534;2023-04-06T02:47:32;2.20;68.50
13944;DHT22;7044;53.286;8.534;2023-04-06T02:50:01;2.30;64.40
13944;DHT22;7044;53.286;8.534;2023-04-06T02:52:28;2.40;60.30
13944;DHT22;7044;53.286;8.534;2023-04-06T02:54:54;2.30;56.20
13944;DHT22;7044;53.286;8.534;2023-04-06T02:57:21;2.30;54.40
13944;DHT22;7044;53.286;8.534;2023-04-06T02:59:48;2.20;51.20
13944;DHT22;7044;53.286;8.534;2023-04-06T03:02:15;2.20;51.70
13944;DHT22;7044;53.286;8.534;2023-04-06T03:04:42;2.20;51.20
13944;DHT22;7044;53.286;8.534;2023-04-06T03:07:10;2.10;51.70
13944;DHT22;7044;53.286;8.534;2023-04-06T03:09:38;2.10;51.60
13944;DHT22;7044;53.286;8.534;2023-04-06T03:12:05;2.10;49.10
13944;DHT22;7044;53.286;8.534;2023-04-06T03:14:32;2.10;46.90
13944;DHT22;7044;53.286;8.534;2023-04-06T03:16:58;2.10;44.80
13944;DHT22;7044;53.286;8.534;2023-04-06T03:19:25;2.10;43.20
13944;DHT22;7044;53.286;8.534;2023-04-06T03:21:52;2.00;37.80
13944;DHT22;7044;53.286;8.534;2023-04-06T03:24:20;1.80;32.20
13944;DHT22;7044;53.286;8.534;2023-04-06T03:26:47;1.90;33.20
13944;DHT22;7044;53.286;8.534;2023-04-06T03:29:14;1.80;31.10
13944;DHT22;7044;53.286;8.534;2023-04-06T03:31:41;1.80;32.80
13944;DHT22;7044;53.286;8.534;2023-04-06T03:34:08;1.80;34.80
13944;DHT22;7044;53.286;8.534;2023-04-06T03:36:35;1.70;31.30
13944;DHT22;7044;53.286;8.534;2023-04-06T03:39:02;1.60;35.70
13944;DHT22;7044;53.286;8.534;2023-04-06T03:41:30;1.70;36.90
13944;DHT22;7044;53.286;8.534;2023-04-06T03:43:57;1.70;35.90
13944;DHT22;7044;53.286;8.534;2023-04-06T03:46:24;1.80;33.60
13944;DHT22;7044;53.286;8.534;2023-04-06T03:48:51;1.80;27.90
13944;DHT22;7044;53.286;8.534;2023-04-06T03:51:17;1.90;20.10
13944;DHT22;7044;53.286;8.534;2023-04-06T03:53:44;1.80;18.60
13944;DHT22;7044;53.286;8.534;2023-04-06T03:56:11;1.90;14.90
13944;DHT22;7044;53.286;8.534;2023-04-06T03:58:39;1.80;11.60
13944;DHT22;7044;53.286;8.534;2023-04-06T04:01:06;1.70;12.40
13944;DHT22;7044;53.286;8.534;2023-04-06T04:03:33;1.70;14.40
13944;DHT22;7044;53.286;8.534;2023-04-06T04:06:00;1.70;13.20
13944;DHT22;7044;53.286;8.534;2023-04-06T04:08:26;1.70;8.90
13944;DHT22;7044;53.286;8.534;2023-04-06T04:10:53;1.60;7.80
13944;DHT22;7044;53.286;8.534;2023-04-06T04:13:20;1.70;7.60
13944;DHT22;7044;53.286;8.534;2023-04-06T04:15:48;1.60;5.70
13944;DHT22;7044;53.286;8.534;2023-04-06T04:18:15;1.60;4.50
13944;DHT22;7044;53.286;8.534;2023-04-06T04:20:42;1.60;1.00
13944;DHT22;7044;53.286;8.534;2023-04-06T04:23:09;1.70;1.00
13944;DHT22;7044;53.286;8.534;2023-04-06T04:25:36;1.80;1.00
13944;DHT22;7044;53.286;8.534;2023-04-06T04:28:03;1.80;1.00
13944;DHT22;7044;53.286;8.534;2023-04-06T04:30:30;1.70;1.00
13944;DHT22;7044;53.286;8.534;2023-04-06T04:32:58;1.70;1.00
13944;DHT22;7044;53.286;8.534;2023-04-06T04:35:26;1.60;1.00
13944;DHT22;7044;53.286;8.534;2023-04-06T04:37:53;1.70;1.00
13944;DHT22;7044;53.286;8.534;2023-04-06T04:40:20;1.70;1.00
13944;DHT22;7044;53.286;8.534;2023-04-06T04:42:49;1.60;1.00
13944;DHT22;7044;53.286;8.534;2023-04-06T04:45:16;1.70;1.00
13944;DHT22;7044;53.286;8.534;2023-04-06T04:47:43;1.70;1.00
13944;DHT22;7044;53.286;8.534;2023-04-06T04:50:11;1.70;1.00
13944;DHT22;7044;53.286;8.534;2023-04-06T04:52:38;1.50;1.00
13944;DHT22;7044;53.286;8.534;2023-04-06T04:55:05;1.60;1.00
13944;DHT22;7044;53.286;8.534;2023-04-06T04:57:32;1.50;1.00
13944;DHT22;7044;53.286;8.534;2023-04-06T04:59:59;1.50;1.00
13944;DHT22;7044;53.286;8.534;2023-04-06T05:02:27;1.50;1.00
13944;DHT22;7044;53.286;8.534;2023-04-06T05:04:54;1.50;1.00
13944;DHT22;7044;53.286;8.534;2023-04-06T05:07:22;1.50;1.00
13944;DHT22;7044;53.286;8.534;2023-04-06T05:09:49;1.40;1.00
13944;DHT22;7044;53.286;8.534;2023-04-06T05:12:16;1.50;1.00
13944;DHT22;7044;53.286;8.534;2023-04-06T05:14:42;1.50;1.00
13944;DHT22;7044;53.286;8.534;2023-04-06T05:17:09;1.60;1.00
13944;DHT22;7044;53.286;8.534;2023-04-06T05:19:36;1.60;1.00
13944;DHT22;7044;53.286;8.534;2023-04-06T05:22:03;1.60;1.00
13944;DHT22;7044;53.286;8.534;2023-04-06T05:24:31;1.50;1.00
13944;DHT22;7044;53.286;8.534;2023-04-06T05:26:58;1.70;1.00
13944;DHT22;7044;53.286;8.534;2023-04-06T05:29:25;1.60;1.00
13944;DHT22;7044;53.286;8.534;2023-04-06T05:31:52;1.70;1.00
13944;DHT22;7044;53.286;8.534;2023-04-06T05:34:19;1.80;1.00
13944;DHT22;7044;53.286;8.534;2023-04-06T05:36:46;1.80;1.00
13944;DHT22;7044;53.286;8.534;2023-04-06T05:39:13;1.80;1.00
13944;DHT22;7044;53.286;8.534;2023-04-06T05:41:41;1.80;1.00
13944;DHT22;7044;53.286;8.534;2023-04-06T05:44:08;1.80;1.00
13944;DHT22;7044;53.286;8.534;2023-04-06T05:46:34;1.80;1.00
13944;DHT22;7044;53.286;8.534;2023-04-06T05:49:02;1.80;1.00
13944;DHT22;7044;53.286;8.534;2023-04-06T05:51:28;1.80;1.00
13944;DHT22;7044;53.286;8.534;2023-04-06T05:53:55;1.80;1.00
13944;DHT22;7044;53.286;8.534;2023-04-06T05:56:23;1.90;1.00
13944;DHT22;7044;53.286;8.534;2023-04-06T05:58:52;1.90;1.00
13944;DHT22;7044;53.286;8.534;2023-04-06T06:01:19;2.10;1.00
13944;DHT22;7044;53.286;8.534;2023-04-06T06:03:46;2.10;1.00
13944;DHT22;7044;53.286;8.534;2023-04-06T06:06:12;2.10;1.00
13944;DHT22;7044;53.286;8.534;2023-04-06T06:08:39;2.10;1.00
13944;DHT22;7044;53.286;8.534;2023-04-06T06:11:06;2.10;1.00
13944;DHT22;7044;53.286;8.534;2023-04-06T06:13:33;2.20;1.00
13944;DHT22;7044;53.286;8.534;2023-04-06T06:16:01;2.20;1.00
13944;DHT22;7044;53.286;8.534;2023-04-06T06:18:30;2.30;1.00
13944;DHT22;7044;53.286;8.534;2023-04-06T06:20:57;2.40;1.00
13944;DHT22;7044;53.286;8.534;2023-04-06T06:23:24;2.50;1.00
13944;DHT22;7044;53.286;8.534;2023-04-06T06:25:51;2.60;1.00
13944;DHT22;7044;53.286;8.534;2023-04-06T06:28:17;2.60;1.00
13944;DHT22;7044;53.286;8.534;2023-04-06T06:30:45;2.70;1.00
13944;DHT22;7044;53.286;8.534;2023-04-06T06:33:13;2.80;1.00
13944;DHT22;7044;53.286;8.534;2023-04-06T06:35:40;2.80;1.00
13944;DHT22;7044;53.286;8.534;2023-04-06T06:38:06;2.90;1.00
13944;DHT22;7044;53.286;8.534;2023-04-06T06:40:33;2.90;1.00
13944;DHT22;7044;53.286;8.534;2023-04-06T06:43:00;3.00;1.00
13944;DHT22;7044;53.286;8.534;2023-04-06T06:45:27;3.10;1.00
13944;DHT22;7044;53.286;8.534;2023-04-06T06:47:54;3.20;1.00
13944;DHT22;7044;53.286;8.534;2023-04-06T06:50:23;3.20;1.00
13944;DHT22;7044;53.286;8.534;2023-04-06T06:52:50;3.30;1.00
13944;DHT22;7044;53.286;8.534;2023-04-06T06:55:17;3.40;1.00
13944;DHT22;7044;53.286;8.534;2023-04-06T06:57:45;3.40;1.00
13944;DHT22;7044;53.286;8.534;2023-04-06T07:00:13;3.50;1.00
13944;DHT22;7044;53.286;8.534;2023-04-06T07:02:40;3.60;1.00
13944;DHT22;7044;53.286;8.534;2023-04-06T07:05:07;3.70;1.00
13944;DHT22;7044;53.286;8.534;2023-04-06T07:07:35;3.80;99.90
13944;DHT22;7044;53.286;8.534;2023-04-06T07:10:03;3.80;1.00
13944;DHT22;7044;53.286;8.534;2023-04-06T07:12:29;3.90;1.00
13944;DHT22;7044;53.286;8.534;2023-04-06T07:14:56;4.00;99.90
13944;DHT22;7044;53.286;8.534;2023-04-06T07:17:23;4.00;99.90
13944;DHT22;7044;53.286;8.534;2023-04-06T07:19:50;4.10;99.90
13944;DHT22;7044;53.286;8.534;2023-04-06T07:22:17;4.20;6.80
13944;DHT22;7044;53.286;8.534;2023-04-06T07:24:45;4.20;5.70
13944;DHT22;7044;53.286;8.534;2023-04-06T07:27:12;4.30;1.00
13944;DHT22;7044;53.286;8.534;2023-04-06T07:29:39;4.40;1.00
13944;DHT22;7044;53.286;8.534;2023-04-06T07:32:06;4.50;1.00
13944;DHT22;7044;53.286;8.534;2023-04-06T07:34:32;4.60;99.90
13944;DHT22;7044;53.286;8.534;2023-04-06T07:37:00;4.60;1.00
13944;DHT22;7044;53.286;8.534;2023-04-06T07:39:27;4.70;1.00
13944;DHT22;7044;53.286;8.534;2023-04-06T07:41:56;4.70;1.00
13944;DHT22;7044;53.286;8.534;2023-04-06T07:44:23;4.80;99.90
13944;DHT22;7044;53.286;8.534;2023-04-06T07:46:50;4.80;1.00
13944;DHT22;7044;53.286;8.534;2023-04-06T07:49:16;5.00;99.90
13944;DHT22;7044;53.286;8.534;2023-04-06T07:51:43;5.00;1.00
13944;DHT22;7044;53.286;8.534;2023-04-06T07:54:10;5.10;1.00
13944;DHT22;7044;53.286;8.534;2023-04-06T07:56:37;5.20;1.00
13944;DHT22;7044;53.286;8.534;2023-04-06T07:59:05;5.20;99.90
13944;DHT22;7044;53.286;8.534;2023-04-06T08:01:32;5.20;99.90
13944;DHT22;7044;53.286;8.534;2023-04-06T08:03:59;5.30;1.00
13944;DHT22;7044;53.286;8.534;2023-04-06T08:06:27;5.40;1.00
13944;DHT22;7044;53.286;8.534;2023-04-06T08:08:54;5.40;1.00
13944;DHT22;7044;53.286;8.534;2023-04-06T08:11:21;5.50;1.00
13944;DHT22;7044;53.286;8.534;2023-04-06T08:13:48;5.60;99.90
13944;DHT22;7044;53.286;8.534;2023-04-06T08:16:17;5.60;99.90
13944;DHT22;7044;53.286;8.534;2023-04-06T08:18:44;5.60;92.80
13944;DHT22;7044;53.286;8.534;2023-04-06T08:21:11;5.70;26.10
13944;DHT22;7044;53.286;8.534;2023-04-06T08:23:38;5.70;1.00
13944;DHT22;7044;53.286;8.534;2023-04-06T08:26:04;5.80;1.00
13944;DHT22;7044;53.286;8.534;2023-04-06T08:28:31;5.90;1.00
13944;DHT22;7044;53.286;8.534;2023-04-06T08:31:03;5.90;1.00
13944;DHT22;7044;53.286;8.534;2023-04-06T08:33:32;6.00;1.00
13944;DHT22;7044;53.286;8.534;2023-04-06T08:36:07;6.00;1.00
13944;DHT22;7044;53.286;8.534;2023-04-06T08:38:34;6.10;1.00
13944;DHT22;7044;53.286;8.534;2023-04-06T08:41:07;6.30;1.00
13944;DHT22;7044;53.286;8.534;2023-04-06T08:43:36;6.30;1.00
13944;DHT22;7044;53.286;8.534;2023-04-06T08:46:08;6.40;1.00
13944;DHT22;7044;53.286;8.534;2023-04-06T08:48:38;6.40;1.00
13944;DHT22;7044;53.286;8.534;2023-04-06T08:51:05;6.50;1.00
13944;DHT22;7044;53.286;8.534;2023-04-06T08:53:32;6.70;1.00
13944;DHT22;7044;53.286;8.534;2023-04-06T08:55:59;6.70;1.00
13944;DHT22;7044;53.286;8.534;2023-04-06T08:58:28;6.90;1.00
13944;DHT22;7044;53.286;8.534;2023-04-06T09:00:56;6.90;99.90
13944;DHT22;7044;53.286;8.534;2023-04-06T09:03:24;7.00;99.90
13944;DHT22;7044;53.286;8.534;2023-04-06T09:05:53;7.00;99.90
13944;DHT22;7044;53.286;8.534;2023-04-06T09:08:20;7.40;99.90
13944;DHT22;7044;53.286;8.534;2023-04-06T09:10:48;7.50;1.00
13944;DHT22;7044;53.286;8.534;2023-04-06T09:13:17;7.50;1.00
13944;DHT22;7044;53.286;8.534;2023-04-06T09:15:44;7.50;1.00
13944;DHT22;7044;53.286;8.534;2023-04-06T09:18:11;7.50;1.00
13944;DHT22;7044;53.286;8.534;2023-04-06T09:20:38;7.50;1.00
13944;DHT22;7044;53.286;8.534;2023-04-06T09:23:06;7.50;99.90
13944;DHT22;7044;53.286;8.534;2023-04-06T09:25:33;7.60;99.90
13944;DHT22;7044;53.286;8.534;2023-04-06T09:28:01;7.70;99.90
13944;DHT22;7044;53.286;8.534;2023-04-06T09:30:28;7.70;99.90
13944;DHT22;7044;53.286;8.534;2023-04-06T09:32:56;7.80;99.90
13944;DHT22;7044;53.286;8.534;2023-04-06T09:35:24;7.80;99.90
13944;DHT22;7044;53.286;8.534;2023-04-06T09:37:53;7.90;99.90
13944;DHT22;7044;53.286;8.534;2023-04-06T09:40:22;8.00;99.90
13944;DHT22;7044;53.286;8.534;2023-04-06T09:42:50;7.90;1.00
13944;DHT22;7044;53.286;8.534;2023-04-06T09:45:19;7.90;1.00
13944;DHT22;7044;53.286;8.534;2023-04-06T09:47:46;7.90;1.00
13944;DHT22;7044;53.286;8.534;2023-04-06T09:50:14;7.90;1.00
13944;DHT22;7044;53.286;8.534;2023-04-06T09:52:46;8.00;1.00
13944;DHT22;7044;53.286;8.534;2023-04-06T09:55:17;8.10;1.00
13944;DHT22;7044;53.286;8.534;2023-04-06T09:57:53;8.20;1.00
13944;DHT22;7044;53.286;8.534;2023-04-06T10:00:22;8.40;1.00
13944;DHT22;7044;53.286;8.534;2023-04-06T10:02:58;8.40;1.00
13944;DHT22;7044;53.286;8.534;2023-04-06T10:05:32;8.60;1.00
13944;DHT22;7044;53.286;8.534;2023-04-06T10:08:04;8.60;1.00
13944;DHT22;7044;53.286;8.534;2023-04-06T10:10:32;8.60;1.00
13944;DHT22;7044;53.286;8.534;2023-04-06T10:13:00;8.70;1.00
13944;DHT22;7044;53.286;8.534;2023-04-06T10:15:28;8.70;1.00
13944;DHT22;7044;53.286;8.534;2023-04-06T10:17:56;8.70;1.00
13944;DHT22;7044;53.286;8.534;2023-04-06T10:20:27;8.80;1.00
13944;DHT22;7044;53.286;8.534;2023-04-06T10:22:59;8.80;1.00
13944;DHT22;7044;53.286;8.534;2023-04-06T10:25:28;8.90;1.00
13944;DHT22;7044;53.286;8.534;2023-04-06T10:28:05;8.90;1.00
13944;DHT22;7044;53.286;8.534;2023-04-06T10:30:33;9.00;1.00
13944;DHT22;7044;53.286;8.534;2023-04-06T10:32:59;9.00;1.00
13944;DHT22;7044;53.286;8.534;2023-04-06T10:35:36;9.10;1.00
13944;DHT22;7044;53.286;8.534;2023-04-06T10:38:04;9.20;1.00
13944;DHT22;7044;53.286;8.534;2023-04-06T10:40:32;9.30;1.00
13944;DHT22;7044;53.286;8.534;2023-04-06T10:43:09;9.30;1.00
13944;DHT22;7044;53.286;8.534;2023-04-06T10:45:36;9.40;1.00
13944;DHT22;7044;53.286;8.534;2023-04-06T10:48:13;9.40;1.00
13944;DHT22;7044;53.286;8.534;2023-04-06T10:50:41;9.40;1.00
13944;DHT22;7044;53.286;8.534;2023-04-06T10:53:08;9.40;1.00
13944;DHT22;7044;53.286;8.534;2023-04-06T10:55:39;9.40;1.00
13944;DHT22;7044;53.286;8.534;2023-04-06T10:58:07;9.50;1.00
13944;DHT22;7044;53.286;8.534;2023-04-06T11:00:35;9.50;1.00
13944;DHT22;7044;53.286;8.534;2023-04-06T11:03:02;9.60;1.00
13944;DHT22;7044;53.286;8.534;2023-04-06T11:05:29;9.70;1.00
13944;DHT22;7044;53.286;8.534;2023-04-06T11:07:56;9.70;1.00
13944;DHT22;7044;53.286;8.534;2023-04-06T11:10:23;9.70;1.00
13944;DHT22;7044;53.286;8.534;2023-04-06T11:12:54;10.20;1.00
13944;DHT22;7044;53.286;8.534;2023-04-06T11:15:22;9.80;1.00
13944;DHT22;7044;53.286;8.534;2023-04-06T11:17:49;9.70;1.00
13944;DHT22;7044;53.286;8.534;2023-04-06T11:20:16;9.90;1.00
13944;DHT22;7044;53.286;8.534;2023-04-06T11:22:49;9.90;1.00
13944;DHT22;7044;53.286;8.534;2023-04-06T11:25:16;10.00;1.00
13944;DHT22;7044;53.286;8.534;2023-04-06T11:27:43;10.00;1.00
13944;DHT22;7044;53.286;8.534;2023-04-06T11:30:11;10.20;1.00
13944;DHT22;7044;53.286;8.534;2023-04-06T11:32:41;10.10;1.00
13944;DHT22;7044;53.286;8.534;2023-04-06T11:35:11;10.10;1.00
13944;DHT22;7044;53.286;8.534;2023-04-06T11:37:38;10.30;1.00
13944;DHT22;7044;53.286;8.534;2023-04-06T11:40:08;10.30;1.00
13944;DHT22;7044;53.286;8.534;2023-04-06T11:42:35;10.20;1.00
13944;DHT22;7044;53.286;8.534;2023-04-06T11:45:03;10.30;1.00
13944;DHT22;7044;53.286;8.534;2023-04-06T11:47:32;10.30;1.00
13944;DHT22;7044;53.286;8.534;2023-04-06T11:50:08;10.40;1.00
13944;DHT22;7044;53.286;8.534;2023-04-06T11:52:35;10.40;1.00
13944;DHT22;7044;53.286;8.534;2023-04-06T11:55:11;10.50;1.00
13944;DHT22;7044;53.286;8.534;2023-04-06T11:57:39;10.50;1.00
13944;DHT22;7044;53.286;8.534;2023-04-06T12:00:07;10.60;99.90
13944;DHT22;7044;53.286;8.534;2023-04-06T12:02:35;10.70;99.90
13944;DHT22;7044;53.286;8.534;2023-04-06T12:05:02;10.60;99.90
13944;DHT22;7044;53.286;8.534;2023-04-06T12:07:31;10.60;99.90
13944;DHT22;7044;53.286;8.534;2023-04-06T12:09:58;10.80;99.90
13944;DHT22;7044;53.286;8.534;2023-04-06T12:12:25;10.80;99.90
13944;DHT22;7044;53.286;8.534;2023-04-06T12:14:52;10.80;99.90
13944;DHT22;7044;53.286;8.534;2023-04-06T12:17:19;11.00;99.90
13944;DHT22;7044;53.286;8.534;2023-04-06T12:19:46;11.00;99.90
13944;DHT22;7044;53.286;8.534;2023-04-06T12:22:14;11.00;99.90
13944;DHT22;7044;53.286;8.534;2023-04-06T12:24:42;11.10;99.90
13944;DHT22;7044;53.286;8.534;2023-04-06T12:27:09;11.10;99.90
13944;DHT22;7044;53.286;8.534;2023-04-06T12:29:37;11.10;99.90
13944;DHT22;7044;53.286;8.534;2023-04-06T12:32:04;11.10;99.90
13944;DHT22;7044;53.286;8.534;2023-04-06T12:34:31;11.20;99.90
13944;DHT22;7044;53.286;8.534;2023-04-06T12:36:58;11.10;99.90
13944;DHT22;7044;53.286;8.534;2023-04-06T12:39:26;11.20;99.90
13944;DHT22;7044;53.286;8.534;2023-04-06T12:41:55;11.20;99.90
13944;DHT22;7044;53.286;8.534;2023-04-06T12:44:22;11.20;99.90
13944;DHT22;7044;53.286;8.534;2023-04-06T12:46:49;11.10;99.90
13944;DHT22;7044;53.286;8.534;2023-04-06T12:49:16;11.10;99.90
13944;DHT22;7044;53.286;8.534;2023-04-06T12:51:44;11.10;99.90
13944;DHT22;7044;53.286;8.534;2023-04-06T12:54:11;11.20;99.90
13944;DHT22;7044;53.286;8.534;2023-04-06T12:56:38;11.30;99.90
13944;DHT22;7044;53.286;8.534;2023-04-06T12:59:07;11.30;99.90
13944;DHT22;7044;53.286;8.534;2023-04-06T13:01:34;11.30;99.90
13944;DHT22;7044;53.286;8.534;2023-04-06T13:04:01;11.40;99.90
13944;DHT22;7044;53.286;8.534;2023-04-06T13:06:28;11.40;99.90
13944;DHT22;7044;53.286;8.534;2023-04-06T13:08:55;11.60;67.30
13944;DHT22;7044;53.286;8.534;2023-04-06T13:11:22;11.60;90.50
13944;DHT22;7044;53.286;8.534;2023-04-06T13:13:50;11.60;94.70
13944;DHT22;7044;53.286;8.534;2023-04-06T13:16:18;11.50;93.70
13944;DHT22;7044;53.286;8.534;2023-04-06T13:18:45;11.70;92.60
13944;DHT22;7044;53.286;8.534;2023-04-06T13:21:13;11.70;85.60
13944;DHT22;7044;53.286;8.534;2023-04-06T13:23:41;11.60;18.40
13944;DHT22;7044;53.286;8.534;2023-04-06T13:26:08;11.50;23.70
13944;DHT22;7044;53.286;8.534;2023-04-06T13:28:36;11.60;30.90
13944;DHT22;7044;53.286;8.534;2023-04-06T13:31:04;11.70;4.40
13944;DHT22;7044;53.286;8.534;2023-04-06T13:33:32;11.80;17.80
13944;DHT22;7044;53.286;8.534;2023-04-06T13:36:00;11.70;35.50
13944;DHT22;7044;53.286;8.534;2023-04-06T13:38:27;11.70;21.90
13944;DHT22;7044;53.286;8.534;2023-04-06T13:40:54;11.60;13.60
13944;DHT22;7044;53.286;8.534;2023-04-06T13:43:21;11.60;28.70
13944;DHT22;7044;53.286;8.534;2023-04-06T13:45:50;11.70;29.00
13944;DHT22;7044;53.286;8.534;2023-04-06T13:48:17;11.70;28.80
13944;DHT22;7044;53.286;8.534;2023-04-06T13:50:46;11.80;7.40
13944;DHT22;7044;53.286;8.534;2023-04-06T13:53:13;11.90;1.80
13944;DHT22;7044;53.286;8.534;2023-04-06T13:55:40;11.90;1.00
13944;DHT22;7044;53.286;8.534;2023-04-06T13:58:07;12.00;1.00
13944;DHT22;7044;53.286;8.534;2023-04-06T14:00:34;12.00;1.00
13944;DHT22;7044;53.286;8.534;2023-04-06T14:03:01;12.00;1.00
13944;DHT22;7044;53.286;8.534;2023-04-06T14:05:31;11.90;1.00
13944;DHT22;7044;53.286;8.534;2023-04-06T14:07:59;12.00;1.00
13944;DHT22;7044;53.286;8.534;2023-04-06T14:10:26;11.90;1.00
13944;DHT22;7044;53.286;8.534;2023-04-06T14:12:53;12.10;1.00
13944;DHT22;7044;53.286;8.534;2023-04-06T14:15:20;12.00;1.00
13944;DHT22;7044;53.286;8.534;2023-04-06T14:17:47;11.90;1.00
13944;DHT22;7044;53.286;8.534;2023-04-06T14:20:14;11.90;1.00
13944;DHT22;7044;53.286;8.534;2023-04-06T14:22:41;11.90;1.00
13944;DHT22;7044;53.286;8.534;2023-04-06T14:25:10;11.90;1.00
13944;DHT22;7044;53.286;8.534;2023-04-06T14:27:38;11.80;1.00
13944;DHT22;7044;53.286;8.534;2023-04-06T14:30:05;11.80;1.00
13944;DHT22;7044;53.286;8.534;2023-04-06T14:32:32;11.70;1.00
13944;DHT22;7044;53.286;8.534;2023-04-06T14:34:59;11.60;1.00
13944;DHT22;7044;53.286;8.534;2023-04-06T14:37:26;11.60;1.00
13944;DHT22;7044;53.286;8.534;2023-04-06T14:39:53;11.60;1.00
13944;DHT22;7044;53.286;8.534;2023-04-06T14:42:21;11.60;1.00
13944;DHT22;7044;53.286;8.534;2023-04-06T14:44:48;11.60;1.00
13944;DHT22;7044;53.286;8.534;2023-04-06T14:47:14;11.60;1.00
13944;DHT22;7044;53.286;8.534;2023-04-06T14:49:45;11.60;1.00
13944;DHT22;7044;53.286;8.534;2023-04-06T14:52:12;11.60;1.00
13944;DHT22;7044;53.286;8.534;2023-04-06T14:54:39;11.60;1.00
13944;DHT22;7044;53.286;8.534;2023-04-06T14:57:06;11.60;1.00
13944;DHT22;7044;53.286;8.534;2023-04-06T14:59:34;11.50;1.00
13944;DHT22;7044;53.286;8.534;2023-04-06T15:02:01;11.50;1.00
13944;DHT22;7044;53.286;8.534;2023-04-06T15:04:28;11.60;1.00
13944;DHT22;7044;53.286;8.534;2023-04-06T15:06:55;11.60;1.30
13944;DHT22;7044;53.286;8.534;2023-04-06T15:09:22;11.60;1.00
13944;DHT22;7044;53.286;8.534;2023-04-06T15:11:48;11.60;1.00
13944;DHT22;7044;53.286;8.534;2023-04-06T15:14:15;11.60;1.00
13944;DHT22;7044;53.286;8.534;2023-04-06T15:16:43;11.60;1.00
13944;DHT22;7044;53.286;8.534;2023-04-06T15:19:10;11.70;1.00
13944;DHT22;7044;53.286;8.534;2023-04-06T15:21:37;11.60;1.00
13944;DHT22;7044;53.286;8.534;2023-04-06T15:24:04;11.60;1.00
13944;DHT22;7044;53.286;8.534;2023-04-06T15:26:34;11.60;1.00
13944;DHT22;7044;53.286;8.534;2023-04-06T15:29:01;11.60;1.00
13944;DHT22;7044;53.286;8.534;2023-04-06T15:31:30;11.60;1.00
13944;DHT22;7044;53.286;8.534;2023-04-06T15:34:00;11.60;1.00
13944;DHT22;7044;53.286;8.534;2023-04-06T15:36:29;11.50;1.00
13944;DHT22;7044;53.286;8.534;2023-04-06T15:38:56;11.50;1.00
13944;DHT22;7044;53.286;8.534;2023-04-06T15:41:23;11.50;1.00
13944;DHT22;7044;53.286;8.534;2023-04-06T15:43:51;11.40;1.00
13944;DHT22;7044;53.286;8.534;2023-04-06T15:46:19;11.40;1.00
13944;DHT22;7044;53.286;8.534;2023-04-06T15:48:46;11.40;1.00
13944;DHT22;7044;53.286;8.534;2023-04-06T15:51:14;11.30;1.00
13944;DHT22;7044;53.286;8.534;2023-04-06T15:53:42;11.30;1.00
13944;DHT22;7044;53.286;8.534;2023-04-06T15:56:09;11.30;1.00
13944;DHT22;7044;53.286;8.534;2023-04-06T15:58:38;11.30;1.00
13944;DHT22;7044;53.286;8.534;2023-04-06T16:01:12;11.20;1.00
13944;DHT22;7044;53.286;8.534;2023-04-06T16:03:40;11.20;1.00
13944;DHT22;7044;53.286;8.534;2023-04-06T16:06:07;11.10;11.70
13944;DHT22;7044;53.286;8.534;2023-04-06T16:08:36;11.10;10.60